sensor_id;sensor_type;location;lat;lon;timestamp;pressure;altitude;pressure_sealevel;temperature;humidity
7109;BME280;29079;41.930;25.558;2023-05-21T00:01:24;99312.66;;;16.78;80.69
7109;BME280;29079;41.930;25.558;2023-05-21T00:04:11;99309.56;;;16.66;80.42
7109;BME280;29079;41.930;25.558;2023-05-21T00:07:02;99297.03;;;16.73;79.99
7109;BME280;29079;41.930;25.558;2023-05-21T00:09:50;99301.00;;;16.77;79.63
7109;BME280;29079;41.930;25.558;2023-05-21T00:12:38;99304.44;;;16.71;79.92
7109;BME280;29079;41.930;25.558;2023-05-21T00:15:27;99276.84;;;16.69;80.05
7109;BME280;29079;41.930;25.558;2023-05-21T00:18:15;99299.06;;;16.71;80.26
7109;BME280;29079;41.930;25.558;2023-05-21T00:21:03;99293.47;;;16.73;80.50
7109;BME280;29079;41.930;25.558;2023-05-21T00:23:54;99278.69;;;16.68;79.50
7109;BME280;29079;41.930;25.558;2023-05-21T00:26:42;99287.19;;;16.80;79.79
7109;BME280;29079;41.930;25.558;2023-05-21T00:29:30;99250.72;;;16.54;80.29
7109;BME280;29079;41.930;25.558;2023-05-21T00:32:17;99276.50;;;16.87;80.86
7109;BME280;29079;41.930;25.558;2023-05-21T00:35:06;99266.72;;;16.71;79.27
7109;BME280;29079;41.930;25.558;2023-05-21T00:37:54;99273.78;;;16.72;80.54
7109;BME280;29079;41.930;25.558;2023-05-21T00:40:44;99276.94;;;16.76;79.24
7109;BME280;29079;41.930;25.558;2023-05-21T00:43:31;99274.72;;;16.64;79.67
7109;BME280;29079;41.930;25.558;2023-05-21T00:46:20;99269.81;;;16.83;78.86
7109;BME280;29079;41.930;25.558;2023-05-21T00:49:08;99273.06;;;16.78;79.54
7109;BME280;29079;41.930;25.558;2023-05-21T00:51:57;99261.88;;;16.90;79.91
7109;BME280;29079;41.930;25.558;2023-05-21T00:54:48;99255.19;;;16.62;79.50
7109;BME280;29079;41.930;25.558;2023-05-21T00:57:38;99258.56;;;16.64;80.94
7109;BME280;29079;41.930;25.558;2023-05-21T01:00:26;99254.75;;;16.74;78.69
7109;BME280;29079;41.930;25.558;2023-05-21T01:03:14;99212.53;;;16.51;79.52
7109;BME280;29079;41.930;25.558;2023-05-21T01:06:03;99260.59;;;16.77;79.55
7109;BME280;29079;41.930;25.558;2023-05-21T01:08:51;99251.13;;;16.66;79.02
7109;BME280;29079;41.930;25.558;2023-05-21T01:11:43;99260.13;;;16.59;79.41
7109;BME280;29079;41.930;25.558;2023-05-21T01:14:35;99247.97;;;16.63;80.79
7109;BME280;29079;41.930;25.558;2023-05-21T01:17:24;99249.38;;;16.74;80.32
7109;BME280;29079;41.930;25.558;2023-05-21T01:20:13;99254.25;;;16.70;79.70
7109;BME280;29079;41.930;25.558;2023-05-21T01:23:05;99259.94;;;16.60;79.80
7109;BME280;29079;41.930;25.558;2023-05-21T01:25:53;99238.38;;;16.60;79.69
7109;BME280;29079;41.930;25.558;2023-05-21T01:28:40;99257.88;;;16.62;79.90
7109;BME280;29079;41.930;25.558;2023-05-21T01:31:34;99250.75;;;16.69;79.98
7109;BME280;29079;41.930;25.558;2023-05-21T01:34:29;99250.53;;;16.56;81.88
7109;BME280;29079;41.930;25.558;2023-05-21T01:37:22;99250.34;;;16.58;80.44
7109;BME280;29079;41.930;25.558;2023-05-21T01:40:19;99244.47;;;16.54;80.19
7109;BME280;29079;41.930;25.558;2023-05-21T01:43:10;99239.19;;;16.46;79.63
7109;BME280;29079;41.930;25.558;2023-05-21T01:45:59;99240.75;;;16.40;80.72
7109;BME280;29079;41.930;25.558;2023-05-21T01:48:48;99219.81;;;16.27;80.70
7109;BME280;29079;41.930;25.558;2023-05-21T01:51:37;99233.97;;;16.44;79.82
7109;BME280;29079;41.930;25.558;2023-05-21T01:54:25;99235.41;;;16.32;79.74
7109;BME280;29079;41.930;25.558;2023-05-21T01:57:14;99236.66;;;16.44;79.40
7109;BME280;29079;41.930;25.558;2023-05-21T02:00:03;99241.25;;;16.59;79.83
7109;BME280;29079;41.930;25.558;2023-05-21T02:02:51;99232.94;;;16.45;80.01
7109;BME280;29079;41.930;25.558;2023-05-21T02:05:39;99241.88;;;16.46;80.16
7109;BME280;29079;41.930;25.558;2023-05-21T02:08:27;99237.03;;;16.41;79.73
7109;BME280;29079;41.930;25.558;2023-05-21T02:11:15;99242.13;;;16.36;80.83
7109;BME280;29079;41.930;25.558;2023-05-21T02:14:04;99246.53;;;16.52;80.82
7109;BME280;29079;41.930;25.558;2023-05-21T02:16:53;99248.56;;;16.50;81.33
7109;BME280;29079;41.930;25.558;2023-05-21T02:19:42;99243.66;;;16.53;80.75
7109;BME280;29079;41.930;25.558;2023-05-21T02:22:30;99236.34;;;16.39;80.42
7109;BME280;29079;41.930;25.558;2023-05-21T02:25:18;99233.31;;;16.42;80.75
7109;BME280;29079;41.930;25.558;2023-05-21T02:28:06;99236.47;;;16.46;80.86
7109;BME280;29079;41.930;25.558;2023-05-21T02:30:55;99232.66;;;16.40;82.47
7109;BME280;29079;41.930;25.558;2023-05-21T02:33:43;99235.03;;;16.35;81.53
7109;BME280;29079;41.930;25.558;2023-05-21T02:36:31;99238.28;;;16.30;82.65
7109;BME280;29079;41.930;25.558;2023-05-21T02:39:21;99241.19;;;16.44;82.69
7109;BME280;29079;41.930;25.558;2023-05-21T02:42:09;99240.44;;;16.35;82.41
7109;BME280;29079;41.930;25.558;2023-05-21T02:44:56;99240.06;;;16.38;81.77
7109;BME280;29079;41.930;25.558;2023-05-21T02:47:46;99241.47;;;16.34;82.31
7109;BME280;29079;41.930;25.558;2023-05-21T02:50:33;99232.91;;;16.30;82.41
7109;BME280;29079;41.930;25.558;2023-05-21T02:53:21;99236.72;;;16.36;82.57
7109;BME280;29079;41.930;25.558;2023-05-21T02:56:09;99240.34;;;16.28;83.43
7109;BME280;29079;41.930;25.558;2023-05-21T02:58:58;99235.19;;;16.18;82.63
7109;BME280;29079;41.930;25.558;2023-05-21T03:01:45;99240.78;;;16.32;83.07
7109;BME280;29079;41.930;25.558;2023-05-21T03:04:35;99230.75;;;16.26;82.32
7109;BME280;29079;41.930;25.558;2023-05-21T03:07:24;99227.94;;;16.19;84.01
7109;BME280;29079;41.930;25.558;2023-05-21T03:10:12;99232.81;;;16.24;82.53
7109;BME280;29079;41.930;25.558;2023-05-21T03:13:00;99228.72;;;16.05;83.78
7109;BME280;29079;41.930;25.558;2023-05-21T03:15:52;99225.56;;;16.24;82.89
7109;BME280;29079;41.930;25.558;2023-05-21T03:18:41;99240.94;;;16.15;83.86
7109;BME280;29079;41.930;25.558;2023-05-21T03:21:31;99234.34;;;16.18;83.64
7109;BME280;29079;41.930;25.558;2023-05-21T03:24:19;99244.84;;;16.28;83.64
7109;BME280;29079;41.930;25.558;2023-05-21T03:27:06;99216.84;;;15.99;82.82
7109;BME280;29079;41.930;25.558;2023-05-21T03:29:54;99243.56;;;16.24;83.51
7109;BME280;29079;41.930;25.558;2023-05-21T03:32:43;99241.16;;;16.29;83.49
7109;BME280;29079;41.930;25.558;2023-05-21T03:35:31;99236.28;;;16.32;82.73
7109;BME280;29079;41.930;25.558;2023-05-21T03:38:20;99238.84;;;16.26;82.71
7109;BME280;29079;41.930;25.558;2023-05-21T03:41:09;99240.50;;;16.27;82.73
7109;BME280;29079;41.930;25.558;2023-05-21T03:43:57;99243.91;;;16.21;83.58
7109;BME280;29079;41.930;25.558;2023-05-21T03:46:44;99240.19;;;16.22;82.44
7109;BME280;29079;41.930;25.558;2023-05-21T03:49:32;99243.22;;;16.27;84.91
7109;BME280;29079;41.930;25.558;2023-05-21T03:52:20;99244.81;;;16.36;82.30
7109;BME280;29079;41.930;25.558;2023-05-21T03:55:09;99234.22;;;16.11;81.10
7109;BME280;29079;41.930;25.558;2023-05-21T03:57:58;99241.88;;;16.23;81.03
7109;BME280;29079;41.930;25.558;2023-05-21T04:00:45;99238.28;;;16.30;82.55
7109;BME280;29079;41.930;25.558;2023-05-21T04:03:33;99238.88;;;16.17;84.99
7109;BME280;29079;41.930;25.558;2023-05-21T04:06:25;99241.38;;;16.19;87.00
7109;BME280;29079;41.930;25.558;2023-05-21T04:09:13;99236.97;;;16.03;91.81
7109;BME280;29079;41.930;25.558;2023-05-21T04:12:03;99243.44;;;15.94;93.19
7109;BME280;29079;41.930;25.558;2023-05-21T04:14:51;99259.09;;;15.90;93.54
7109;BME280;29079;41.930;25.558;2023-05-21T04:17:39;99261.66;;;15.83;95.89
7109;BME280;29079;41.930;25.558;2023-05-21T04:20:27;99246.69;;;15.49;100.00
7109;BME280;29079;41.930;25.558;2023-05-21T04:23:15;99265.53;;;15.41;100.00
7109;BME280;29079;41.930;25.558;2023-05-21T04:26:02;99270.72;;;15.51;100.00
7109;BME280;29079;41.930;25.558;2023-05-21T04:28:52;99267.28;;;15.18;100.00
7109;BME280;29079;41.930;25.558;2023-05-21T04:31:44;99273.00;;;15.14;100.00
7109;BME280;29079;41.930;25.558;2023-05-21T04:34:32;99267.22;;;15.34;100.00
7109;BME280;29079;41.930;25.558;2023-05-21T04:37:20;99269.75;;;15.36;100.00
7109;BME280;29079;41.930;25.558;2023-05-21T04:40:10;99275.34;;;15.18;100.00
7109;BME280;29079;41.930;25.558;2023-05-21T04:43:03;99276.00;;;15.28;100.00
7109;BME280;29079;41.930;25.558;2023-05-21T04:45:52;99269.63;;;15.21;100.00
7109;BME280;29079;41.930;25.558;2023-05-21T04:48:40;99277.88;;;15.19;100.00
7109;BME280;29079;41.930;25.558;2023-05-21T04:51:28;99257.72;;;15.15;100.00
7109;BME280;29079;41.930;25.558;2023-05-21T04:54:16;99285.63;;;15.54;100.00
7109;BME280;29079;41.930;25.558;2023-05-21T04:57:04;99284.16;;;15.43;100.00
7109;BME280;29079;41.930;25.558;2023-05-21T04:59:52;99283.50;;;15.41;100.00
7109;BME280;29079;41.930;25.558;2023-05-21T05:02:41;99290.72;;;15.40;100.00
7109;BME280;29079;41.930;25.558;2023-05-21T05:05:29;99288.22;;;15.30;100.00
7109;BME280;29079;41.930;25.558;2023-05-21T05:08:17;99280.56;;;15.19;100.00
7109;BME280;29079;41.930;25.558;2023-05-21T05:11:05;99292.84;;;15.13;100.00
7109;BME280;29079;41.930;25.558;2023-05-21T05:13:52;99290.81;;;15.07;100.00
7109;BME280;29079;41.930;25.558;2023-05-21T05:16:40;99281.44;;;14.95;100.00
7109;BME280;29079;41.930;25.558;2023-05-21T05:19:29;99280.75;;;15.01;100.00
7109;BME280;29079;41.930;25.558;2023-05-21T05:22:17;99218.00;;;14.61;100.00
7109;BME280;29079;41.930;25.558;2023-05-21T05:25:06;99287.47;;;15.13;100.00
7109;BME280;29079;41.930;25.558;2023-05-21T05:27:53;99283.44;;;15.01;100.00
7109;BME280;29079;41.930;25.558;2023-05-21T05:30:41;99285.00;;;14.87;100.00
7109;BME280;29079;41.930;25.558;2023-05-21T05:33:29;99290.16;;;15.13;100.00
7109;BME280;29079;41.930;25.558;2023-05-21T05:36:18;99292.84;;;15.05;100.00
7109;BME280;29079;41.930;25.558;2023-05-21T05:39:06;99290.84;;;14.99;100.00
7109;BME280;29079;41.930;25.558;2023-05-21T05:41:54;99297.03;;;15.08;100.00
7109;BME280;29079;41.930;25.558;2023-05-21T05:44:41;99286.09;;;15.18;100.00
7109;BME280;29079;41.930;25.558;2023-05-21T05:47:30;99249.22;;;14.87;100.00
7109;BME280;29079;41.930;25.558;2023-05-21T05:50:18;99288.63;;;15.19;100.00
7109;BME280;29079;41.930;25.558;2023-05-21T05:53:07;99293.50;;;15.15;100.00
7109;BME280;29079;41.930;25.558;2023-05-21T05:55:58;99290.81;;;15.15;100.00
7109;BME280;29079;41.930;25.558;2023-05-21T05:58:46;99285.41;;;15.24;100.00
7109;BME280;29079;41.930;25.558;2023-05-21T06:01:34;99286.75;;;15.28;100.00
7109;BME280;29079;41.930;25.558;2023-05-21T06:04:21;99281.19;;;15.29;100.00
7109;BME280;29079;41.930;25.558;2023-05-21T06:07:09;99266.94;;;15.21;100.00
7109;BME280;29079;41.930;25.558;2023-05-21T06:09:58;99276.19;;;15.18;100.00
7109;BME280;29079;41.930;25.558;2023-05-21T06:12:46;99279.69;;;15.27;100.00
7109;BME280;29079;41.930;25.558;2023-05-21T06:15:34;99285.53;;;15.30;100.00
7109;BME280;29079;41.930;25.558;2023-05-21T06:18:22;99300.56;;;15.17;100.00
7109;BME280;29079;41.930;25.558;2023-05-21T06:21:10;99293.59;;;15.39;100.00
7109;BME280;29079;41.930;25.558;2023-05-21T06:23:58;99294.13;;;15.34;100.00
7109;BME280;29079;41.930;25.558;2023-05-21T06:26:47;99300.00;;;15.29;100.00
7109;BME280;29079;41.930;25.558;2023-05-21T06:29:35;99299.50;;;15.26;100.00
7109;BME280;29079;41.930;25.558;2023-05-21T06:32:23;99294.13;;;15.26;100.00
7109;BME280;29079;41.930;25.558;2023-05-21T06:35:11;99291.63;;;15.16;100.00
7109;BME280;29079;41.930;25.558;2023-05-21T06:37:59;99295.63;;;15.28;100.00
7109;BME280;29079;41.930;25.558;2023-05-21T06:40:47;99299.53;;;15.18;100.00
7109;BME280;29079;41.930;25.558;2023-05-21T06:43:36;99292.16;;;15.11;100.00
7109;BME280;29079;41.930;25.558;2023-05-21T06:46:23;99295.34;;;15.15;100.00
7109;BME280;29079;41.930;25.558;2023-05-21T06:49:12;99283.44;;;15.09;100.00
7109;BME280;29079;41.930;25.558;2023-05-21T06:52:00;99296.19;;;15.07;100.00
7109;BME280;29079;41.930;25.558;2023-05-21T06:54:48;99286.28;;;15.08;100.00
7109;BME280;29079;41.930;25.558;2023-05-21T06:57:36;99288.44;;;15.21;100.00
7109;BME280;29079;41.930;25.558;2023-05-21T07:00:26;99287.38;;;15.38;100.00
7109;BME280;29079;41.930;25.558;2023-05-21T07:03:14;99291.25;;;15.27;100.00
7109;BME280;29079;41.930;25.558;2023-05-21T07:06:03;99291.72;;;15.47;100.00
7109;BME280;29079;41.930;25.558;2023-05-21T07:08:50;99296.13;;;15.32;100.00
7109;BME280;29079;41.930;25.558;2023-05-21T07:11:38;99275.28;;;15.42;100.00
7109;BME280;29079;41.930;25.558;2023-05-21T07:14:26;99283.28;;;15.59;100.00
7109;BME280;29079;41.930;25.558;2023-05-21T07:17:15;99268.28;;;15.25;100.00
7109;BME280;29079;41.930;25.558;2023-05-21T07:20:03;99289.03;;;15.39;100.00
7109;BME280;29079;41.930;25.558;2023-05-21T07:22:53;99281.41;;;15.59;100.00
7109;BME280;29079;41.930;25.558;2023-05-21T07:25:41;99281.72;;;15.64;100.00
7109;BME280;29079;41.930;25.558;2023-05-21T07:28:28;99285.97;;;15.50;100.00
7109;BME280;29079;41.930;25.558;2023-05-21T07:31:16;99289.63;;;15.66;100.00
7109;BME280;29079;41.930;25.558;2023-05-21T07:34:05;99276.63;;;15.78;100.00
7109;BME280;29079;41.930;25.558;2023-05-21T07:36:53;99285.50;;;15.87;100.00
7109;BME280;29079;41.930;25.558;2023-05-21T07:39:41;99297.66;;;15.74;100.00
7109;BME280;29079;41.930;25.558;2023-05-21T07:42:29;99287.56;;;15.76;100.00
7109;BME280;29079;41.930;25.558;2023-05-21T07:45:17;99296.63;;;15.83;100.00
7109;BME280;29079;41.930;25.558;2023-05-21T07:48:05;99252.59;;;15.76;100.00
7109;BME280;29079;41.930;25.558;2023-05-21T07:50:55;99282.44;;;15.98;100.00
7109;BME280;29079;41.930;25.558;2023-05-21T07:53:43;99282.31;;;16.14;100.00
7109;BME280;29079;41.930;25.558;2023-05-21T07:56:31;99286.97;;;16.21;100.00
7109;BME280;29079;41.930;25.558;2023-05-21T07:59:18;99279.56;;;16.23;100.00
7109;BME280;29079;41.930;25.558;2023-05-21T08:02:06;99291.66;;;16.27;100.00
7109;BME280;29079;41.930;25.558;2023-05-21T08:04:54;99295.84;;;16.29;100.00
7109;BME280;29079;41.930;25.558;2023-05-21T08:07:44;99288.84;;;16.43;100.00
7109;BME280;29079;41.930;25.558;2023-05-21T08:10:32;99290.16;;;16.47;100.00
7109;BME280;29079;41.930;25.558;2023-05-21T08:13:20;99266.22;;;16.29;100.00
7109;BME280;29079;41.930;25.558;2023-05-21T08:16:08;99299.16;;;16.63;99.66
7109;BME280;29079;41.930;25.558;2023-05-21T08:18:56;99300.44;;;16.67;100.00
7109;BME280;29079;41.930;25.558;2023-05-21T08:21:44;99293.22;;;16.67;98.61
7109;BME280;29079;41.930;25.558;2023-05-21T08:24:34;99288.47;;;16.69;100.00
7109;BME280;29079;41.930;25.558;2023-05-21T08:27:22;99259.81;;;16.53;98.01
7109;BME280;29079;41.930;25.558;2023-05-21T08:30:10;99297.31;;;16.78;96.23
7109;BME280;29079;41.930;25.558;2023-05-21T08:32:58;99303.38;;;16.80;97.42
7109;BME280;29079;41.930;25.558;2023-05-21T08:35:46;99290.53;;;16.82;98.87
7109;BME280;29079;41.930;25.558;2023-05-21T08:38:34;99291.00;;;16.86;98.49
7109;BME280;29079;41.930;25.558;2023-05-21T08:41:24;99286.31;;;16.88;95.81
7109;BME280;29079;41.930;25.558;2023-05-21T08:44:12;99298.59;;;16.91;96.65
7109;BME280;29079;41.930;25.558;2023-05-21T08:47:01;99294.22;;;16.90;95.83
7109;BME280;29079;41.930;25.558;2023-05-21T08:49:51;99296.84;;;16.98;95.98
7109;BME280;29079;41.930;25.558;2023-05-21T08:52:40;99299.16;;;17.01;95.04
7109;BME280;29079;41.930;25.558;2023-05-21T08:55:28;99295.41;;;17.02;96.05
7109;BME280;29079;41.930;25.558;2023-05-21T08:58:19;99303.44;;;17.10;95.24
7109;BME280;29079;41.930;25.558;2023-05-21T09:01:08;99306.44;;;17.15;95.79
7109;BME280;29079;41.930;25.558;2023-05-21T09:03:57;99293.97;;;17.14;94.26
7109;BME280;29079;41.930;25.558;2023-05-21T09:07:05;99303.81;;;17.22;93.83
7109;BME280;29079;41.930;25.558;2023-05-21T09:09:55;99307.38;;;17.22;93.61
7109;BME280;29079;41.930;25.558;2023-05-21T09:12:43;99311.72;;;17.23;92.83
7109;BME280;29079;41.930;25.558;2023-05-21T09:15:35;99313.41;;;17.25;93.89
7109;BME280;29079;41.930;25.558;2023-05-21T09:18:23;99314.91;;;17.27;93.54
7109;BME280;29079;41.930;25.558;2023-05-21T09:21:23;99316.09;;;17.25;92.28
7109;BME280;29079;41.930;25.558;2023-05-21T09:24:11;99328.56;;;17.26;92.68
7109;BME280;29079;41.930;25.558;2023-05-21T09:27:00;99136.50;;;16.11;93.17
7109;BME280;29079;41.930;25.558;2023-05-21T09:29:48;99324.00;;;17.26;88.26
7109;BME280;29079;41.930;25.558;2023-05-21T09:32:38;99325.50;;;17.29;88.33
7109;BME280;29079;41.930;25.558;2023-05-21T09:35:26;99323.63;;;17.29;86.70
7109;BME280;29079;41.930;25.558;2023-05-21T09:38:14;99314.03;;;17.27;85.81
7109;BME280;29079;41.930;25.558;2023-05-21T09:41:04;99312.75;;;17.22;87.04
7109;BME280;29079;41.930;25.558;2023-05-21T09:43:52;99324.38;;;17.23;87.53
7109;BME280;29079;41.930;25.558;2023-05-21T09:46:40;99313.78;;;17.21;88.56
7109;BME280;29079;41.930;25.558;2023-05-21T09:49:29;99296.03;;;17.12;89.00
7109;BME280;29079;41.930;25.558;2023-05-21T09:52:22;99302.25;;;17.13;89.46
7109;BME280;29079;41.930;25.558;2023-05-21T09:55:12;99306.63;;;17.14;90.22
7109;BME280;29079;41.930;25.558;2023-05-21T09:58:00;99308.47;;;17.13;88.32
7109;BME280;29079;41.930;25.558;2023-05-21T10:00:51;99309.66;;;17.11;88.22
7109;BME280;29079;41.930;25.558;2023-05-21T10:03:39;99309.84;;;17.09;89.64
7109;BME280;29079;41.930;25.558;2023-05-21T10:06:30;99298.59;;;17.05;89.19
7109;BME280;29079;41.930;25.558;2023-05-21T10:09:19;99307.31;;;16.93;90.30
7109;BME280;29079;41.930;25.558;2023-05-21T10:12:07;99302.22;;;16.98;89.77
7109;BME280;29079;41.930;25.558;2023-05-21T10:14:59;99305.00;;;16.90;89.64
7109;BME280;29079;41.930;25.558;2023-05-21T10:17:48;99300.06;;;16.93;91.33
7109;BME280;29079;41.930;25.558;2023-05-21T10:20:36;99302.28;;;16.90;89.11
7109;BME280;29079;41.930;25.558;2023-05-21T10:23:26;99303.31;;;16.88;89.83
7109;BME280;29079;41.930;25.558;2023-05-21T10:26:16;99293.19;;;16.91;90.54
7109;BME280;29079;41.930;25.558;2023-05-21T10:29:04;99304.56;;;17.01;91.97
7109;BME280;29079;41.930;25.558;2023-05-21T10:31:54;99309.28;;;16.99;88.27
7109;BME280;29079;41.930;25.558;2023-05-21T10:34:43;99295.59;;;17.00;89.50
7109;BME280;29079;41.930;25.558;2023-05-21T10:37:32;99301.94;;;17.08;89.33
7109;BME280;29079;41.930;25.558;2023-05-21T10:40:22;99298.22;;;17.09;89.01
7109;BME280;29079;41.930;25.558;2023-05-21T10:43:29;99302.06;;;17.14;89.98
7109;BME280;29079;41.930;25.558;2023-05-21T10:47:10;99308.09;;;17.16;89.95
7109;BME280;29079;41.930;25.558;2023-05-21T10:50:25;99303.38;;;17.18;90.82
7109;BME280;29079;41.930;25.558;2023-05-21T10:53:21;99300.41;;;17.28;92.45
7109;BME280;29079;41.930;25.558;2023-05-21T10:56:18;99305.41;;;17.31;91.27
7109;BME280;29079;41.930;25.558;2023-05-21T10:59:14;99304.84;;;17.36;91.46
7109;BME280;29079;41.930;25.558;2023-05-21T11:02:08;99302.44;;;17.41;91.62
7109;BME280;29079;41.930;25.558;2023-05-21T11:04:58;99308.94;;;17.47;89.45
7109;BME280;29079;41.930;25.558;2023-05-21T11:07:50;99303.06;;;17.58;87.20
7109;BME280;29079;41.930;25.558;2023-05-21T11:10:41;99305.13;;;17.71;86.29
7109;BME280;29079;41.930;25.558;2023-05-21T11:13:46;99303.16;;;17.80;87.06
7109;BME280;29079;41.930;25.558;2023-05-21T11:16:35;99307.97;;;17.84;88.69
7109;BME280;29079;41.930;25.558;2023-05-21T11:19:32;99309.66;;;17.85;86.18
7109;BME280;29079;41.930;25.558;2023-05-21T11:22:22;99307.78;;;17.86;88.03
7109;BME280;29079;41.930;25.558;2023-05-21T11:25:10;99303.06;;;17.88;88.74
7109;BME280;29079;41.930;25.558;2023-05-21T11:28:04;99298.56;;;17.80;88.13
7109;BME280;29079;41.930;25.558;2023-05-21T11:31:21;99300.00;;;17.91;88.20
7109;BME280;29079;41.930;25.558;2023-05-21T11:34:13;99306.56;;;17.88;88.97
7109;BME280;29079;41.930;25.558;2023-05-21T11:37:25;99285.75;;;17.82;88.28
7109;BME280;29079;41.930;25.558;2023-05-21T11:40:21;99290.09;;;17.83;87.55
7109;BME280;29079;41.930;25.558;2023-05-21T11:43:11;99292.91;;;17.90;87.62
7109;BME280;29079;41.930;25.558;2023-05-21T11:45:59;99293.56;;;17.92;87.28
7109;BME280;29079;41.930;25.558;2023-05-21T11:48:49;99294.75;;;17.89;87.59
7109;BME280;29079;41.930;25.558;2023-05-21T11:51:39;99288.34;;;17.90;86.85
7109;BME280;29079;41.930;25.558;2023-05-21T11:54:27;99277.44;;;17.99;88.64
7109;BME280;29079;41.930;25.558;2023-05-21T11:57:20;99280.16;;;17.99;88.86
7109;BME280;29079;41.930;25.558;2023-05-21T12:00:13;99247.19;;;17.88;89.09
7109;BME280;29079;41.930;25.558;2023-05-21T12:03:01;99266.91;;;18.04;89.93
7109;BME280;29079;41.930;25.558;2023-05-21T12:05:52;99271.53;;;18.10;88.56
7109;BME280;29079;41.930;25.558;2023-05-21T12:08:40;99266.78;;;18.12;86.91
7109;BME280;29079;41.930;25.558;2023-05-21T12:11:28;99235.72;;;18.01;87.68
7109;BME280;29079;41.930;25.558;2023-05-21T12:14:16;99263.69;;;18.15;88.29
7109;BME280;29079;41.930;25.558;2023-05-21T12:17:05;99265.38;;;18.16;88.33
7109;BME280;29079;41.930;25.558;2023-05-21T12:19:54;99257.53;;;18.21;87.01
7109;BME280;29079;41.930;25.558;2023-05-21T12:22:43;99256.06;;;18.19;88.03
7109;BME280;29079;41.930;25.558;2023-05-21T12:25:31;99259.47;;;18.27;87.47
7109;BME280;29079;41.930;25.558;2023-05-21T12:28:19;99247.38;;;18.23;86.00
7109;BME280;29079;41.930;25.558;2023-05-21T12:31:13;99250.84;;;18.39;87.25
7109;BME280;29079;41.930;25.558;2023-05-21T12:34:01;99231.94;;;18.39;87.15
7109;BME280;29079;41.930;25.558;2023-05-21T12:36:49;99237.78;;;18.42;86.96
7109;BME280;29079;41.930;25.558;2023-05-21T12:39:39;99241.63;;;18.55;86.13
7109;BME280;29079;41.930;25.558;2023-05-21T12:42:28;99245.91;;;18.71;85.02
7109;BME280;29079;41.930;25.558;2023-05-21T12:45:16;99235.13;;;18.71;83.50
7109;BME280;29079;41.930;25.558;2023-05-21T12:48:06;99230.44;;;18.86;82.51
7109;BME280;29079;41.930;25.558;2023-05-21T12:50:57;99238.16;;;18.89;81.01
7109;BME280;29079;41.930;25.558;2023-05-21T12:53:45;99226.97;;;18.92;79.62
7109;BME280;29079;41.930;25.558;2023-05-21T12:56:44;99233.91;;;18.80;81.54
7109;BME280;29079;41.930;25.558;2023-05-21T12:59:48;99235.13;;;18.71;80.40
7109;BME280;29079;41.930;25.558;2023-05-21T13:02:38;99211.81;;;18.70;79.58
7109;BME280;29079;41.930;25.558;2023-05-21T13:05:27;99235.41;;;18.83;78.76
7109;BME280;29079;41.930;25.558;2023-05-21T13:08:15;99229.16;;;18.82;77.27
7109;BME280;29079;41.930;25.558;2023-05-21T13:11:03;99211.00;;;18.76;72.84
7109;BME280;29079;41.930;25.558;2023-05-21T13:13:52;99228.63;;;18.93;71.33
7109;BME280;29079;41.930;25.558;2023-05-21T13:16:39;99225.22;;;18.85;73.17
7109;BME280;29079;41.930;25.558;2023-05-21T13:19:27;99226.28;;;18.84;71.71
7109;BME280;29079;41.930;25.558;2023-05-21T13:22:15;99226.31;;;18.90;70.16
7109;BME280;29079;41.930;25.558;2023-05-21T13:25:04;99210.63;;;18.79;71.47
7109;BME280;29079;41.930;25.558;2023-05-21T13:27:52;99214.41;;;18.85;71.05
7109;BME280;29079;41.930;25.558;2023-05-21T13:30:41;99215.09;;;18.87;72.13
7109;BME280;29079;41.930;25.558;2023-05-21T13:33:30;99217.81;;;18.93;71.76
7109;BME280;29079;41.930;25.558;2023-05-21T13:36:18;99207.59;;;18.89;72.59
7109;BME280;29079;41.930;25.558;2023-05-21T13:39:06;99212.06;;;19.03;70.16
7109;BME280;29079;41.930;25.558;2023-05-21T13:41:53;99212.25;;;19.02;71.35
7109;BME280;29079;41.930;25.558;2023-05-21T13:44:41;99207.94;;;19.07;71.28
7109;BME280;29079;41.930;25.558;2023-05-21T13:47:31;99207.47;;;19.04;72.54
7109;BME280;29079;41.930;25.558;2023-05-21T13:50:18;99202.25;;;19.02;73.16
7109;BME280;29079;41.930;25.558;2023-05-21T13:53:07;99205.66;;;19.11;72.41
7109;BME280;29079;41.930;25.558;2023-05-21T13:55:54;99201.09;;;19.18;72.82
7109;BME280;29079;41.930;25.558;2023-05-21T13:58:42;99192.31;;;19.03;74.20
7109;BME280;29079;41.930;25.558;2023-05-21T14:01:31;99195.88;;;19.10;74.29
7109;BME280;29079;41.930;25.558;2023-05-21T14:04:20;99197.16;;;19.14;73.82
7109;BME280;29079;41.930;25.558;2023-05-21T14:07:09;99189.25;;;19.19;72.62
7109;BME280;29079;41.930;25.558;2023-05-21T14:09:57;99192.78;;;19.20;74.72
7109;BME280;29079;41.930;25.558;2023-05-21T14:12:45;99179.44;;;19.11;75.60
7109;BME280;29079;41.930;25.558;2023-05-21T14:15:32;99178.25;;;19.21;75.08
7109;BME280;29079;41.930;25.558;2023-05-21T14:18:21;99178.06;;;19.29;75.94
7109;BME280;29079;41.930;25.558;2023-05-21T14:21:10;99180.16;;;19.34;74.25
7109;BME280;29079;41.930;25.558;2023-05-21T14:23:58;99178.50;;;19.33;73.92
7109;BME280;29079;41.930;25.558;2023-05-21T14:26:45;99173.94;;;19.33;73.66
7109;BME280;29079;41.930;25.558;2023-05-21T14:29:33;99179.31;;;19.26;73.06
7109;BME280;29079;41.930;25.558;2023-05-21T14:32:21;99170.16;;;19.27;73.46
7109;BME280;29079;41.930;25.558;2023-05-21T14:35:09;99171.44;;;19.31;73.21
7109;BME280;29079;41.930;25.558;2023-05-21T14:37:58;99169.72;;;19.17;74.76
7109;BME280;29079;41.930;25.558;2023-05-21T14:40:46;99165.56;;;19.28;75.01
7109;BME280;29079;41.930;25.558;2023-05-21T14:43:34;99164.31;;;19.24;74.63
7109;BME280;29079;41.930;25.558;2023-05-21T14:46:22;99167.09;;;19.44;73.39
7109;BME280;29079;41.930;25.558;2023-05-21T14:49:10;99149.97;;;19.30;74.23
7109;BME280;29079;41.930;25.558;2023-05-21T14:51:58;99163.97;;;19.47;74.46
7109;BME280;29079;41.930;25.558;2023-05-21T14:54:47;99170.00;;;19.42;74.46